Time;durP1;ratioP1;P1;durP2;ratioP2;P2;SDS_P1;SDS_P2;PMS_P1;PMS_P2;Temp;Humidity;BMP_temperature;BMP_pressure;BME280_temperature;BME280_humidity;BME280_pressure;Samples;Min_cycle;Max_cycle;Signal;HPM_P1;HPM_P2
2022/12/08 00:01:31;;;;;;;384.13;366.80;;;4.00;99.90;;;;;;5022363;28;21005;-84
2022/12/08 00:03:58;;;;;;;376.80;359.30;;;4.10;99.90;;;;;;5022123;28;20453;-86
2022/12/08 00:09:24;;;;;;;401.20;382.47;;;4.00;99.90;;;;;;5022916;28;20484;-85
2022/12/08 00:11:56;;;;;;;416.93;397.63;;;4.00;99.90;;;;;;5022523;28;20898;-85
2022/12/08 00:14:25;;;;;;;416.70;397.90;;;4.00;99.90;;;;;;5023360;28;20485;-85
2022/12/08 00:16:53;;;;;;;422.37;402.20;;;4.00;99.90;;;;;;5027361;28;20453;-84
2022/12/08 00:19:20;;;;;;;421.20;401.37;;;3.90;99.90;;;;;;5026431;28;20449;-84
2022/12/08 00:21:48;;;;;;;413.70;394.37;;;4.00;99.90;;;;;;5026506;28;20473;-84
2022/12/08 00:24:15;;;;;;;414.47;395.37;;;4.00;99.90;;;;;;5027210;28;21156;-84
2022/12/08 00:26:42;;;;;;;434.67;414.13;;;4.00;99.90;;;;;;5027284;28;20479;-84
2022/12/08 00:29:09;;;;;;;434.43;413.97;;;3.90;99.90;;;;;;5026649;28;21001;-84
2022/12/08 00:31:36;;;;;;;446.07;423.57;;;3.90;99.90;;;;;;5027347;28;20476;-84
2022/12/08 00:34:03;;;;;;;463.20;440.60;;;3.80;99.90;;;;;;5027596;28;20461;-84
2022/12/08 00:36:30;;;;;;;475.23;451.10;;;3.80;99.90;;;;;;5027185;28;20459;-84
2022/12/08 00:38:59;;;;;;;491.40;464.43;;;3.80;99.90;;;;;;5027022;28;20452;-85
2022/12/08 00:44:13;;;;;;;489.33;462.43;;;3.80;99.90;;;;;;5027395;28;20514;-84
2022/12/08 00:46:40;;;;;;;506.50;477.30;;;3.70;99.90;;;;;;5027158;28;20453;-83
2022/12/08 00:49:07;;;;;;;525.83;494.87;;;3.60;99.90;;;;;;5026996;28;20480;-84
2022/12/08 00:51:34;;;;;;;533.30;501.53;;;3.70;99.90;;;;;;5025766;28;20473;-84
2022/12/08 00:54:02;;;;;;;538.17;505.37;;;3.70;99.90;;;;;;5026496;28;20445;-84
2022/12/08 00:56:29;;;;;;;544.23;510.83;;;3.80;99.90;;;;;;5026685;28;20454;-84
2022/12/08 00:58:56;;;;;;;553.23;518.33;;;3.60;99.90;;;;;;5027039;28;20441;-83
2022/12/08 01:01:22;;;;;;;569.93;534.13;;;3.60;99.90;;;;;;5025818;28;20835;-84
2022/12/08 01:03:49;;;;;;;582.30;543.70;;;3.60;99.90;;;;;;5027954;28;20464;-84
2022/12/08 01:06:16;;;;;;;594.10;554.60;;;3.40;99.90;;;;;;5026472;28;20449;-84
2022/12/08 01:08:43;;;;;;;626.43;584.30;;;3.40;99.90;;;;;;5026655;28;20658;-84
2022/12/08 01:11:14;;;;;;;640.33;595.67;;;3.30;99.90;;;;;;5026583;28;21011;-84
2022/12/08 01:13:41;;;;;;;646.43;600.10;;;3.30;99.90;;;;;;5026388;28;20463;-84
2022/12/08 01:16:09;;;;;;;656.37;607.73;;;3.30;99.90;;;;;;5025969;28;20453;-84
2022/12/08 01:18:36;;;;;;;659.47;611.10;;;3.30;99.90;;;;;;5026629;28;20445;-83
2022/12/08 01:21:03;;;;;;;652.90;603.27;;;3.50;99.90;;;;;;5026203;28;20537;-84
2022/12/08 01:23:30;;;;;;;648.40;598.97;;;3.60;99.90;;;;;;5025479;28;20457;-84
2022/12/08 01:26:02;;;;;;;640.17;590.57;;;3.70;99.90;;;;;;5025364;28;20454;-84
2022/12/08 01:28:30;;;;;;;635.37;586.77;;;3.70;99.90;;;;;;5026532;28;20473;-84
2022/12/08 01:30:57;;;;;;;616.80;572.00;;;3.70;99.90;;;;;;5025482;28;20492;-83
2022/12/08 01:33:24;;;;;;;593.57;551.17;;;3.90;99.90;;;;;;5025476;28;20473;-84
2022/12/08 01:35:51;;;;;;;569.23;530.10;;;4.00;99.90;;;;;;5025092;28;20458;-84
2022/12/08 01:38:18;;;;;;;527.80;492.13;;;4.00;99.90;;;;;;5025355;28;20480;-84
2022/12/08 01:40:45;;;;;;;502.13;470.00;;;4.10;99.90;;;;;;5025686;28;20479;-82
2022/12/08 01:43:15;;;;;;;480.37;450.13;;;4.20;99.90;;;;;;5026060;28;20457;-85
2022/12/08 01:45:44;;;;;;;466.53;437.73;;;4.20;99.90;;;;;;5025416;28;21008;-84
2022/12/08 01:48:17;;;;;;;465.70;437.60;;;4.30;99.90;;;;;;5026006;28;20472;-83
2022/12/08 01:50:44;;;;;;;455.37;427.20;;;4.20;99.90;;;;;;5034953;28;20477;-85
2022/12/08 01:53:16;;;;;;;455.80;429.83;;;4.20;99.90;;;;;;5025794;28;20453;-84
2022/12/08 01:55:48;;;;;;;434.87;410.73;;;4.20;99.90;;;;;;5025267;28;20457;-84
2022/12/08 01:58:18;;;;;;;432.03;408.93;;;4.30;99.90;;;;;;5025982;28;20445;-84
2022/12/08 02:00:47;;;;;;;421.63;399.73;;;4.20;99.90;;;;;;5025525;28;20469;-84
2022/12/08 02:03:19;;;;;;;407.80;386.90;;;4.30;99.90;;;;;;5024800;28;20449;-84
2022/12/08 02:05:46;;;;;;;399.67;379.83;;;4.30;99.90;;;;;;5025222;28;20460;-84
2022/12/08 02:08:14;;;;;;;396.23;376.67;;;4.20;99.90;;;;;;5025480;28;20476;-84
2022/12/08 02:10:43;;;;;;;388.63;369.23;;;4.30;99.90;;;;;;5024308;28;20537;-83
2022/12/08 02:13:13;;;;;;;378.77;360.83;;;4.30;99.90;;;;;;5024528;28;20449;-84
2022/12/08 02:15:48;;;;;;;362.23;345.30;;;4.30;99.90;;;;;;5024700;28;20453;-84
2022/12/08 02:18:33;;;;;;;349.57;333.47;;;4.30;99.90;;;;;;5023964;28;20464;-85
2022/12/08 02:21:06;;;;;;;330.43;314.63;;;4.30;99.90;;;;;;5024115;28;20476;-84
2022/12/08 02:23:41;;;;;;;338.37;322.63;;;4.30;99.90;;;;;;5025188;28;20453;-84
2022/12/08 02:26:56;;;;;;;338.03;323.03;;;4.30;99.90;;;;;;5024466;28;20453;-86
2022/12/08 02:29:52;;;;;;;351.63;335.53;;;4.40;99.90;;;;;;5023644;28;20477;-84
2022/12/08 02:32:52;;;;;;;336.63;321.63;;;4.30;99.90;;;;;;5024440;28;20472;-84
2022/12/08 02:35:25;;;;;;;333.83;318.93;;;4.40;99.90;;;;;;4971669;28;20469;-84
2022/12/08 02:38:01;;;;;;;325.20;310.47;;;4.40;99.90;;;;;;5006443;28;20934;-85
2022/12/08 02:40:34;;;;;;;318.90;305.10;;;4.40;99.90;;;;;;5023761;28;20441;-84
2022/12/08 02:43:06;;;;;;;327.73;313.33;;;4.30;99.90;;;;;;5024041;28;20472;-85
2022/12/08 02:45:38;;;;;;;315.03;300.93;;;4.50;99.90;;;;;;5024107;28;20460;-84
2022/12/08 02:48:05;;;;;;;306.43;293.00;;;4.30;99.90;;;;;;5024159;28;20835;-86
2022/12/08 02:50:33;;;;;;;276.57;264.97;;;4.30;99.90;;;;;;5022666;28;20567;-85
2022/12/08 02:53:01;;;;;;;260.27;249.73;;;4.30;99.90;;;;;;5022295;28;20479;-84
2022/12/08 02:55:31;;;;;;;239.47;229.80;;;4.30;99.90;;;;;;5022658;28;20465;-84
2022/12/08 02:58:38;;;;;;;244.47;234.20;;;4.40;99.90;;;;;;5023050;28;20992;-84
2022/12/08 03:01:19;;;;;;;230.50;219.90;;;4.30;99.90;;;;;;5023085;28;20483;-84
2022/12/08 03:03:57;;;;;;;204.37;196.17;;;4.50;99.90;;;;;;5002994;28;20501;-87
2022/12/08 03:06:32;;;;;;;204.80;196.50;;;4.40;99.90;;;;;;5005574;28;20452;-84
2022/12/08 03:09:08;;;;;;;205.50;197.20;;;4.40;99.90;;;;;;5023820;28;20476;-84
2022/12/08 03:11:41;;;;;;;202.50;194.47;;;4.30;99.90;;;;;;5040273;28;20523;-84
2022/12/08 03:14:11;;;;;;;218.17;209.53;;;4.30;99.90;;;;;;5023574;28;20457;-84
2022/12/08 03:16:41;;;;;;;217.60;208.70;;;4.30;99.90;;;;;;5023378;28;20457;-84
2022/12/08 03:19:13;;;;;;;211.93;203.37;;;4.30;99.90;;;;;;5023178;28;20966;-85
2022/12/08 03:21:45;;;;;;;216.23;207.57;;;4.30;99.90;;;;;;5022315;28;20472;-84
2022/12/08 03:24:14;;;;;;;234.53;225.43;;;4.30;99.90;;;;;;5023855;28;20839;-84
2022/12/08 03:26:46;;;;;;;235.73;226.20;;;4.40;99.90;;;;;;5023491;28;20468;-84
2022/12/08 03:29:13;;;;;;;254.40;244.20;;;4.40;99.90;;;;;;5023242;28;20484;-84
2022/12/08 03:31:45;;;;;;;251.30;240.80;;;4.40;99.90;;;;;;5022892;28;20568;-85
2022/12/08 03:34:13;;;;;;;250.33;240.70;;;4.40;99.90;;;;;;5023421;28;20473;-84
2022/12/08 03:36:44;;;;;;;251.20;240.97;;;4.40;99.90;;;;;;5021528;28;20444;-84
2022/12/08 03:39:11;;;;;;;270.30;259.53;;;4.30;99.90;;;;;;5023679;28;20445;-83
2022/12/08 03:41:37;;;;;;;273.23;262.10;;;4.30;99.90;;;;;;5022871;28;20469;-84
2022/12/08 03:44:05;;;;;;;263.53;252.27;;;4.30;99.90;;;;;;5022915;28;20457;-85
2022/12/08 03:46:31;;;;;;;266.43;255.10;;;4.40;99.90;;;;;;5023192;28;20453;-84
2022/12/08 03:48:58;;;;;;;269.23;258.23;;;4.40;99.90;;;;;;5025677;28;20469;-85
2022/12/08 03:51:26;;;;;;;265.80;254.97;;;4.40;99.90;;;;;;5026573;28;20484;-84
2022/12/08 03:53:55;;;;;;;290.47;278.07;;;4.40;99.90;;;;;;5027611;28;20449;-84
2022/12/08 03:56:25;;;;;;;272.17;260.67;;;4.40;99.90;;;;;;5026163;28;20835;-85
2022/12/08 03:58:53;;;;;;;268.97;258.33;;;4.30;99.90;;;;;;5026583;28;20441;-85
2022/12/08 04:01:20;;;;;;;261.10;250.43;;;4.40;99.90;;;;;;5026267;28;20483;-84
2022/12/08 04:03:47;;;;;;;270.37;259.30;;;4.40;99.90;;;;;;5026981;28;20464;-84
2022/12/08 04:06:15;;;;;;;281.50;269.90;;;4.50;99.90;;;;;;5026839;28;20476;-84
2022/12/08 04:08:44;;;;;;;267.10;256.60;;;4.50;99.90;;;;;;5027612;28;20487;-83
2022/12/08 04:11:30;;;;;;;271.53;260.73;;;4.40;99.90;;;;;;5004487;28;20495;-85
2022/12/08 04:13:57;;;;;;;285.73;273.87;;;4.40;99.90;;;;;;5024112;28;20555;-85
2022/12/08 04:16:25;;;;;;;287.97;276.30;;;4.40;99.90;;;;;;5025275;28;20525;-85
2022/12/08 04:18:52;;;;;;;269.67;258.50;;;4.40;99.90;;;;;;5030970;28;20453;-84
2022/12/08 04:21:19;;;;;;;291.90;280.00;;;4.40;99.90;;;;;;5024944;28;20479;-84
2022/12/08 04:23:46;;;;;;;309.87;296.67;;;4.30;99.90;;;;;;5006923;28;20453;-84
2022/12/08 04:26:13;;;;;;;338.40;324.27;;;4.30;99.90;;;;;;5005624;28;20822;-85
2022/12/08 04:28:41;;;;;;;345.70;330.90;;;4.30;99.90;;;;;;5007290;28;20540;-84
2022/12/08 04:31:08;;;;;;;375.37;358.57;;;4.20;99.90;;;;;;5005649;28;20474;-84
2022/12/08 04:33:35;;;;;;;380.40;363.53;;;4.20;99.90;;;;;;5003926;28;20457;-85
2022/12/08 04:36:02;;;;;;;400.53;382.33;;;4.30;99.90;;;;;;5025644;28;20456;-85
2022/12/08 04:38:28;;;;;;;409.17;391.17;;;4.30;99.90;;;;;;5026484;28;20453;-85
2022/12/08 04:40:55;;;;;;;423.83;403.83;;;4.30;99.90;;;;;;5015761;28;20474;-84
2022/12/08 04:43:22;;;;;;;420.73;400.13;;;4.30;99.90;;;;;;5004714;28;20453;-84
2022/12/08 04:45:50;;;;;;;435.77;415.17;;;4.20;99.90;;;;;;5007336;28;20460;-84
2022/12/08 04:48:17;;;;;;;433.03;413.00;;;4.30;99.90;;;;;;5006609;28;20454;-83
2022/12/08 04:50:45;;;;;;;432.50;410.93;;;4.30;99.90;;;;;;5009816;28;20482;-84
2022/12/08 04:53:13;;;;;;;425.40;405.33;;;4.30;99.90;;;;;;5022215;28;20500;-83
2022/12/08 04:55:42;;;;;;;442.97;421.60;;;4.30;99.90;;;;;;5025887;28;20449;-85
2022/12/08 04:58:12;;;;;;;427.97;407.47;;;4.30;99.90;;;;;;5025585;28;20540;-83
2022/12/08 05:00:39;;;;;;;413.90;394.13;;;4.30;99.90;;;;;;5023973;28;20950;-85
2022/12/08 05:03:08;;;;;;;365.50;348.17;;;4.30;99.90;;;;;;5024380;28;20457;-85
2022/12/08 05:05:35;;;;;;;377.87;359.90;;;4.30;99.90;;;;;;5023893;28;20453;-84
2022/12/08 05:08:01;;;;;;;378.87;360.67;;;4.30;99.90;;;;;;5025878;28;20460;-83
2022/12/08 05:10:28;;;;;;;375.67;357.40;;;4.40;99.90;;;;;;5023399;28;20472;-84
2022/12/08 05:12:55;;;;;;;367.40;348.90;;;4.30;99.90;;;;;;5023112;28;20483;-83
2022/12/08 05:15:22;;;;;;;378.43;359.73;;;4.30;99.90;;;;;;5027245;28;20453;-84
2022/12/08 05:17:52;;;;;;;363.97;346.30;;;4.30;99.90;;;;;;5028093;28;20461;-84
2022/12/08 05:20:26;;;;;;;340.53;322.90;;;4.30;99.90;;;;;;5024945;28;20441;-84
2022/12/08 05:22:55;;;;;;;317.40;301.40;;;4.30;99.90;;;;;;5015154;28;20456;-84
2022/12/08 05:25:24;;;;;;;294.70;279.90;;;4.30;99.90;;;;;;5026734;28;20461;-84
2022/12/08 05:27:51;;;;;;;327.07;309.57;;;4.30;99.90;;;;;;5027484;28;20544;-84
2022/12/08 05:30:19;;;;;;;315.90;300.17;;;4.40;99.90;;;;;;5026103;28;20575;-84
2022/12/08 05:32:46;;;;;;;272.47;259.67;;;4.40;99.90;;;;;;5025001;28;20489;-85
2022/12/08 05:35:12;;;;;;;283.53;268.43;;;4.30;99.90;;;;;;5024336;28;20452;-85
2022/12/08 05:37:41;;;;;;;275.30;262.10;;;4.40;99.90;;;;;;5025395;28;20481;-83
2022/12/08 05:40:09;;;;;;;282.20;267.83;;;4.30;99.90;;;;;;5026767;28;20488;-84
2022/12/08 05:42:35;;;;;;;283.30;269.80;;;4.30;99.90;;;;;;5024956;28;20508;-83
2022/12/08 05:45:03;;;;;;;331.20;315.83;;;4.20;99.90;;;;;;5022149;28;20449;-85
2022/12/08 05:47:30;;;;;;;350.53;333.03;;;4.10;99.90;;;;;;5022433;28;20457;-85
2022/12/08 05:49:56;;;;;;;374.80;356.70;;;4.10;99.90;;;;;;5025792;28;20503;-84
2022/12/08 05:52:23;;;;;;;328.77;314.17;;;4.10;99.90;;;;;;5022142;28;20483;-85
2022/12/08 05:54:57;;;;;;;333.80;317.80;;;4.10;99.90;;;;;;5020025;28;20453;-86
2022/12/08 05:57:27;;;;;;;335.37;317.87;;;4.20;99.90;;;;;;5022600;28;20465;-87
2022/12/08 05:59:55;;;;;;;370.80;354.07;;;4.20;99.90;;;;;;5019346;28;20449;-85
2022/12/08 06:02:22;;;;;;;375.07;357.57;;;4.20;99.90;;;;;;5016067;28;20481;-85
2022/12/08 06:04:49;;;;;;;412.00;393.53;;;4.20;99.90;;;;;;5014764;28;20460;-85
2022/12/08 06:07:16;;;;;;;438.17;418.13;;;4.00;99.90;;;;;;5023470;28;20549;-84
2022/12/08 06:09:46;;;;;;;444.33;422.83;;;4.00;99.90;;;;;;5022418;28;20552;-85
2022/12/08 06:12:15;;;;;;;451.30;430.80;;;3.90;99.90;;;;;;5022889;28;20473;-85
2022/12/08 06:14:41;;;;;;;412.97;395.27;;;4.00;99.90;;;;;;5022874;28;20455;-85
2022/12/08 06:17:09;;;;;;;434.90;416.13;;;3.90;99.90;;;;;;5023993;28;20453;-85
2022/12/08 06:19:36;;;;;;;431.57;413.37;;;3.90;99.90;;;;;;5025099;28;20460;-84
2022/12/08 06:22:03;;;;;;;473.47;452.53;;;3.90;99.90;;;;;;5025784;28;20469;-84
2022/12/08 06:24:30;;;;;;;476.93;455.97;;;3.90;99.90;;;;;;5025544;28;20984;-84
2022/12/08 06:26:57;;;;;;;464.83;443.63;;;3.90;99.90;;;;;;5026053;28;20950;-84
2022/12/08 06:29:25;;;;;;;457.47;437.47;;;3.80;99.90;;;;;;5022461;28;20476;-83
2022/12/08 06:31:51;;;;;;;476.17;454.37;;;3.80;99.90;;;;;;5021598;28;20477;-84
2022/12/08 06:34:18;;;;;;;481.57;459.07;;;3.90;99.90;;;;;;5021752;28;20480;-83
2022/12/08 06:36:45;;;;;;;482.73;461.53;;;3.80;99.90;;;;;;5024215;28;20452;-84
2022/12/08 06:39:14;;;;;;;512.47;487.47;;;3.80;99.90;;;;;;5024010;28;20783;-83
2022/12/08 06:44:22;;;;;;;481.83;459.37;;;3.90;99.90;;;;;;5021132;28;20454;-83
2022/12/08 06:46:50;;;;;;;486.00;463.93;;;3.80;99.90;;;;;;5021907;28;20509;-84
2022/12/08 06:49:17;;;;;;;482.47;460.87;;;3.90;99.90;;;;;;5023193;28;20480;-84
2022/12/08 06:51:44;;;;;;;475.77;453.17;;;3.80;99.90;;;;;;5023317;28;20898;-84
2022/12/08 06:54:10;;;;;;;477.87;455.50;;;3.90;99.90;;;;;;5022899;28;20453;-83
2022/12/08 06:56:37;;;;;;;469.13;448.63;;;3.90;99.90;;;;;;5021017;28;20450;-84
2022/12/08 06:59:04;;;;;;;464.90;443.73;;;3.90;99.90;;;;;;5023460;28;20631;-84
2022/12/08 07:01:31;;;;;;;472.33;451.07;;;3.90;99.90;;;;;;5021206;28;20491;-84
2022/12/08 07:03:59;;;;;;;478.13;455.83;;;3.80;99.90;;;;;;5022410;28;20453;-84
2022/12/08 07:06:25;;;;;;;484.47;461.93;;;3.90;99.90;;;;;;5021739;28;20461;-85
2022/12/08 07:08:52;;;;;;;500.30;476.63;;;3.90;99.90;;;;;;5024212;28;20461;-84
2022/12/08 07:11:19;;;;;;;506.90;482.63;;;3.90;99.90;;;;;;5023640;28;20477;-83
2022/12/08 07:13:46;;;;;;;511.93;488.17;;;3.80;99.90;;;;;;5021864;28;20460;-85
2022/12/08 07:16:13;;;;;;;498.63;475.53;;;3.80;99.90;;;;;;5002442;28;20453;-81
2022/12/08 07:18:40;;;;;;;468.57;446.27;;;3.80;99.90;;;;;;4999975;28;20454;-83
2022/12/08 07:21:10;;;;;;;457.07;437.17;;;3.90;99.90;;;;;;5018141;28;20469;-85
2022/12/08 07:23:37;;;;;;;456.10;436.47;;;3.80;99.90;;;;;;5022398;28;20445;-86
2022/12/08 07:26:06;;;;;;;456.77;436.87;;;3.80;99.90;;;;;;5022514;28;20467;-84
2022/12/08 07:28:33;;;;;;;461.23;440.30;;;3.80;99.90;;;;;;5020665;28;20485;-84
2022/12/08 07:31:00;;;;;;;459.03;439.13;;;3.80;99.90;;;;;;5020695;28;20477;-84
2022/12/08 07:33:27;;;;;;;449.17;430.37;;;3.80;99.90;;;;;;5019846;28;20525;-83
2022/12/08 07:35:55;;;;;;;451.33;433.17;;;3.70;99.90;;;;;;5018533;28;20453;-83
2022/12/08 07:38:23;;;;;;;427.10;409.30;;;3.80;99.90;;;;;;5019371;28;20449;-83
2022/12/08 07:40:50;;;;;;;452.73;433.53;;;3.70;99.90;;;;;;5021608;28;20476;-83
2022/12/08 07:43:17;;;;;;;475.67;455.10;;;3.70;99.90;;;;;;5021819;28;20988;-81
2022/12/08 07:45:43;;;;;;;517.80;493.25;;;3.70;99.90;;;;;;5018823;28;20466;-83
2022/12/08 07:48:10;;;;;;;511.33;488.07;;;3.60;99.90;;;;;;5019039;28;20202;-82
2022/12/08 07:50:38;;;;;;;522.63;498.00;;;3.70;99.90;;;;;;5018156;28;20487;-82
2022/12/08 07:53:05;;;;;;;514.37;490.87;;;3.60;99.90;;;;;;5019089;28;20457;-83
2022/12/08 07:55:33;;;;;;;526.70;502.00;;;3.60;99.90;;;;;;5019380;28;20457;-82
2022/12/08 07:57:59;;;;;;;515.40;491.97;;;3.60;99.90;;;;;;5019870;28;20457;-83
2022/12/08 08:00:26;;;;;;;520.17;495.67;;;3.60;99.90;;;;;;5017034;28;20460;-82
2022/12/08 08:02:53;;;;;;;531.87;507.27;;;3.60;99.90;;;;;;5019040;28;20453;-82
2022/12/08 08:05:20;;;;;;;531.10;506.10;;;3.60;99.90;;;;;;5019025;28;20460;-83
2022/12/08 08:07:47;;;;;;;542.70;516.10;;;3.60;99.90;;;;;;5019561;28;20453;-82
2022/12/08 08:10:14;;;;;;;514.57;491.67;;;3.60;99.90;;;;;;5019126;28;20483;-83
2022/12/08 08:12:42;;;;;;;515.90;492.47;;;3.70;99.90;;;;;;5019134;28;20473;-82
2022/12/08 08:15:09;;;;;;;527.97;501.00;;;3.70;99.90;;;;;;5019301;28;20452;-83
2022/12/08 08:17:37;;;;;;;531.77;506.17;;;3.70;99.90;;;;;;5019857;28;20461;-82
2022/12/08 08:20:06;;;;;;;551.00;523.17;;;3.70;99.90;;;;;;5018901;28;20453;-83
2022/12/08 08:22:34;;;;;;;553.47;526.17;;;3.70;99.90;;;;;;5018524;28;20484;-83
2022/12/08 08:25:00;;;;;;;562.60;533.83;;;3.70;99.90;;;;;;5019634;28;20480;-83
2022/12/08 08:27:27;;;;;;;587.73;556.73;;;3.80;99.90;;;;;;5019704;28;20453;-83
2022/12/08 08:29:55;;;;;;;578.87;547.57;;;3.80;99.90;;;;;;5018985;28;20480;-83
2022/12/08 08:32:22;;;;;;;584.27;552.97;;;3.80;99.90;;;;;;5019018;28;20478;-82
2022/12/08 08:34:49;;;;;;;578.93;548.40;;;3.90;99.90;;;;;;5019156;28;20468;-83
2022/12/08 08:37:15;;;;;;;567.30;538.13;;;3.90;99.90;;;;;;5023223;28;20457;-82
2022/12/08 08:39:42;;;;;;;567.97;538.23;;;4.00;99.90;;;;;;5023073;28;20456;-83
2022/12/08 08:42:09;;;;;;;536.57;509.80;;;4.00;99.90;;;;;;5022163;28;20981;-83
2022/12/08 08:44:37;;;;;;;533.23;506.83;;;3.90;99.90;;;;;;5022892;28;20954;-83
2022/12/08 08:47:05;;;;;;;523.80;498.30;;;3.90;99.90;;;;;;5022234;28;20467;-82
2022/12/08 08:49:32;;;;;;;505.70;481.53;;;3.90;99.90;;;;;;5022715;28;20460;-83
2022/12/08 08:51:59;;;;;;;503.37;479.80;;;4.00;99.90;;;;;;5022231;28;20481;-83
2022/12/08 08:54:25;;;;;;;483.83;460.73;;;4.00;99.90;;;;;;5022204;28;20457;-83
2022/12/08 08:56:52;;;;;;;461.30;440.13;;;4.00;99.90;;;;;;5022837;28;20460;-83
2022/12/08 08:59:19;;;;;;;450.83;430.97;;;3.90;99.90;;;;;;5022624;28;20457;-83
2022/12/08 09:01:46;;;;;;;439.27;420.40;;;4.00;99.90;;;;;;5022501;28;20480;-85
2022/12/08 09:04:14;;;;;;;432.53;413.83;;;4.00;99.90;;;;;;5023067;28;20457;-83
2022/12/08 09:06:42;;;;;;;427.40;408.93;;;4.10;99.90;;;;;;5022833;28;20457;-83
2022/12/08 09:09:08;;;;;;;388.67;372.30;;;4.10;99.90;;;;;;5023029;28;20540;-84
2022/12/08 09:11:35;;;;;;;355.30;340.40;;;4.10;99.90;;;;;;5021303;28;20495;-83
2022/12/08 09:14:02;;;;;;;344.60;330.00;;;4.10;99.90;;;;;;5022116;28;20484;-83
2022/12/08 09:16:29;;;;;;;358.93;343.70;;;4.00;99.90;;;;;;5022872;28;20973;-84
2022/12/08 09:18:56;;;;;;;352.13;337.70;;;4.10;99.90;;;;;;5022731;28;20453;-83
2022/12/08 09:21:25;;;;;;;358.50;344.10;;;4.10;99.90;;;;;;5021699;28;20631;-83
2022/12/08 09:23:54;;;;;;;360.37;345.17;;;4.10;99.90;;;;;;5022620;28;20479;-84
2022/12/08 09:26:22;;;;;;;348.93;334.53;;;4.10;99.90;;;;;;5022279;28;20452;-85
2022/12/08 09:28:48;;;;;;;344.33;330.13;;;4.10;99.90;;;;;;5022080;28;20457;-83
2022/12/08 09:31:15;;;;;;;326.57;313.60;;;4.20;99.90;;;;;;5020920;28;20576;-85
2022/12/08 09:33:42;;;;;;;302.27;289.97;;;4.20;99.90;;;;;;5021006;28;20461;-84
2022/12/08 09:36:10;;;;;;;265.33;255.63;;;4.20;99.90;;;;;;5021798;28;20454;-83
2022/12/08 09:38:39;;;;;;;244.80;235.67;;;4.10;99.90;;;;;;5022012;28;20449;-83
2022/12/08 09:41:16;;;;;;;244.60;235.80;;;4.20;99.90;;;;;;5021558;28;20465;-83
2022/12/08 09:43:55;;;;;;;219.60;211.43;;;4.20;99.90;;;;;;5021352;28;20457;-83
2022/12/08 09:46:21;;;;;;;230.10;221.30;;;4.10;99.90;;;;;;5020909;28;20468;-83
2022/12/08 09:48:54;;;;;;;226.57;216.77;;;4.20;99.90;;;;;;5021641;28;20450;-83
2022/12/08 09:51:23;;;;;;;204.43;196.13;;;4.10;99.90;;;;;;5020831;28;20535;-83
2022/12/08 09:53:56;;;;;;;169.37;163.33;;;4.10;99.90;;;;;;5021257;28;20842;-82
2022/12/08 09:56:28;;;;;;;188.37;181.03;;;4.00;99.90;;;;;;5021294;28;20442;-82
2022/12/08 09:58:59;;;;;;;168.20;161.93;;;4.00;99.90;;;;;;5021492;28;20798;-82
2022/12/08 10:01:29;;;;;;;185.87;178.37;;;4.10;99.90;;;;;;5021094;28;20499;-82
2022/12/08 10:03:56;;;;;;;236.13;227.23;;;4.10;99.90;;;;;;5021065;28;20473;-82
2022/12/08 10:06:30;;;;;;;257.83;248.03;;;4.20;99.90;;;;;;5021280;28;20825;-82
2022/12/08 10:09:10;;;;;;;267.60;257.20;;;4.30;99.90;;;;;;5021188;28;20453;-82
2022/12/08 10:11:44;;;;;;;268.80;258.57;;;4.50;99.90;;;;;;5019654;28;20484;-82
2022/12/08 10:14:18;;;;;;;259.80;249.80;;;4.60;99.90;;;;;;5020997;28;20482;-82
2022/12/08 10:16:49;;;;;;;224.80;215.77;;;4.60;99.90;;;;;;5020469;28;20468;-83
2022/12/08 10:19:20;;;;;;;166.03;159.03;;;4.70;99.90;;;;;;5020819;28;20453;-83
2022/12/08 10:21:48;;;;;;;201.50;192.63;;;4.70;99.90;;;;;;5020550;28;20473;-83
2022/12/08 10:24:23;;;;;;;199.43;191.23;;;4.70;99.90;;;;;;5020800;28;20472;-83
2022/12/08 10:26:50;;;;;;;161.30;153.77;;;4.80;99.90;;;;;;5020802;28;20433;-83
2022/12/08 10:29:17;;;;;;;171.13;163.53;;;4.70;99.90;;;;;;5020273;28;20449;-83
2022/12/08 10:31:44;;;;;;;163.07;156.33;;;4.70;99.90;;;;;;5019515;28;20515;-83
2022/12/08 10:34:17;;;;;;;158.67;151.83;;;4.70;99.90;;;;;;5020542;28;20474;-85
2022/12/08 10:36:49;;;;;;;162.53;154.33;;;4.60;99.90;;;;;;5020516;28;20532;-83
2022/12/08 10:39:38;;;;;;;176.37;169.03;;;4.70;99.90;;;;;;5020281;28;20456;-83
2022/12/08 10:42:09;;;;;;;157.20;149.90;;;4.70;99.90;;;;;;5019981;28;20482;-83
2022/12/08 10:44:49;;;;;;;113.67;107.87;;;4.80;99.90;;;;;;5020268;28;20460;-83
2022/12/08 10:47:19;;;;;;;102.80;98.00;;;4.80;99.90;;;;;;5019809;28;20456;-83
2022/12/08 10:49:45;;;;;;;76.83;72.13;;;5.00;99.90;;;;;;5020143;28;20845;-85
2022/12/08 10:52:23;;;;;;;52.57;48.27;;;4.80;99.90;;;;;;5020222;28;20840;-83
2022/12/08 10:54:54;;;;;;;44.97;41.70;;;4.90;99.90;;;;;;5020039;28;20449;-85
2022/12/08 10:57:24;;;;;;;60.00;56.23;;;4.80;99.90;;;;;;5019598;28;20449;-83
2022/12/08 10:59:55;;;;;;;56.73;52.83;;;4.90;99.90;;;;;;5020176;28;20503;-83
2022/12/08 11:02:22;;;;;;;56.60;53.23;;;5.10;99.90;;;;;;5020630;28;20476;-84
2022/12/08 11:04:58;;;;;;;46.20;42.97;;;5.00;99.90;;;;;;5019639;28;20453;-83
2022/12/08 11:07:25;;;;;;;43.13;40.03;;;5.10;99.90;;;;;;5020377;28;20457;-84
2022/12/08 11:09:57;;;;;;;32.63;29.23;;;5.10;99.90;;;;;;5020077;28;20464;-83
2022/12/08 11:12:28;;;;;;;31.83;29.20;;;5.10;99.90;;;;;;5019766;28;20484;-83
2022/12/08 11:15:01;;;;;;;30.20;27.50;;;5.10;99.90;;;;;;5020329;28;20461;-84
2022/12/08 11:17:35;;;;;;;29.40;27.00;;;5.20;99.90;;;;;;5020394;28;20484;-83
2022/12/08 11:20:05;;;;;;;24.90;22.40;;;5.10;99.90;;;;;;5020569;28;20497;-84
2022/12/08 11:22:35;;;;;;;22.63;20.37;;;5.20;99.90;;;;;;5020265;28;20480;-83
2022/12/08 11:25:12;;;;;;;19.33;17.27;;;5.30;99.90;;;;;;5020470;28;20464;-83
2022/12/08 11:27:42;;;;;;;19.07;16.50;;;5.20;99.90;;;;;;5020925;28;20437;-83
2022/12/08 11:30:15;;;;;;;18.77;13.10;;;5.20;99.90;;;;;;5019789;28;20457;-83
2022/12/08 11:32:44;;;;;;;21.97;17.07;;;5.20;99.90;;;;;;5020257;28;20485;-85
2022/12/08 11:35:20;;;;;;;18.70;16.90;;;5.20;99.90;;;;;;5020889;28;20457;-83
2022/12/08 11:37:47;;;;;;;16.63;13.27;;;5.10;99.90;;;;;;5021074;28;20881;-83
2022/12/08 11:40:21;;;;;;;17.60;15.90;;;5.10;99.90;;;;;;5020024;28;20453;-84
2022/12/08 11:43:13;;;;;;;15.80;14.13;;;5.10;99.90;;;;;;5020851;28;20473;-84
2022/12/08 11:45:41;;;;;;;21.40;17.73;;;5.20;99.90;;;;;;5020829;28;20457;-83
2022/12/08 11:48:14;;;;;;;20.80;15.47;;;5.20;99.90;;;;;;5020941;28;20457;-83
2022/12/08 11:50:49;;;;;;;22.93;15.50;;;5.20;99.90;;;;;;5020301;28;20481;-84
2022/12/08 11:53:24;;;;;;;31.53;13.13;;;5.30;99.90;;;;;;5020748;28;20806;-84
2022/12/08 11:55:57;;;;;;;20.40;14.60;;;5.30;99.90;;;;;;5021597;28;20459;-84
2022/12/08 11:58:31;;;;;;;20.93;15.43;;;5.40;99.90;;;;;;5021593;28;20548;-83
2022/12/08 12:00:57;;;;;;;18.47;15.67;;;5.50;99.90;;;;;;5021896;28;20487;-84
2022/12/08 12:03:31;;;;;;;20.57;13.60;;;5.70;99.90;;;;;;5021388;28;20461;-84
2022/12/08 12:06:21;;;;;;;19.87;12.37;;;5.90;99.90;;;;;;5022549;28;20492;-86
2022/12/08 12:08:59;;;;;;;18.40;11.40;;;6.00;99.90;;;;;;5020938;28;20449;-84
2022/12/08 12:14:42;;;;;;;16.20;10.80;;;5.90;99.90;;;;;;5027016;28;20460;-84
2022/12/08 12:17:26;;;;;;;21.53;9.53;;;6.10;99.90;;;;;;5027141;28;20448;-84
2022/12/08 12:19:54;;;;;;;14.53;8.83;;;6.30;99.90;;;;;;5025976;28;20457;-84
2022/12/08 12:22:22;;;;;;;23.73;11.00;;;6.60;99.90;;;;;;5024834;28;20494;-84
2022/12/08 12:24:52;;;;;;;23.87;9.33;;;6.70;99.90;;;;;;5024219;28;20455;-84
2022/12/08 12:27:27;;;;;;;21.90;11.47;;;6.70;99.90;;;;;;5024114;28;20453;-83
2022/12/08 12:29:58;;;;;;;13.57;7.77;;;6.80;99.90;;;;;;5024608;28;20543;-84
2022/12/08 12:32:27;;;;;;;17.93;9.30;;;6.60;99.90;;;;;;5022374;28;21005;-84
2022/12/08 12:34:56;;;;;;;17.47;9.10;;;6.60;99.90;;;;;;5024315;28;20453;-84
2022/12/08 12:37:26;;;;;;;20.03;7.87;;;6.60;99.90;;;;;;5022841;28;20449;-84
2022/12/08 12:40:05;;;;;;;18.03;8.50;;;6.70;99.90;;;;;;5023097;28;20460;-83
2022/12/08 12:42:42;;;;;;;13.50;7.60;;;6.50;99.90;;;;;;5023062;28;20472;-85
2022/12/08 12:45:27;;;;;;;13.90;7.53;;;6.40;99.90;;;;;;5025355;28;20452;-84